createdAt,value
2022-08-01T00:05:34.675Z,94.05
2022-08-01T00:15:41.061Z,94.37
2022-08-01T00:25:57.587Z,94.62
2022-08-01T00:36:03.369Z,94.63
2022-08-01T00:46:09.209Z,94.96
2022-08-01T00:56:15.632Z,95.15
2022-08-01T01:06:37.827Z,95.09
2022-08-01T01:16:45.464Z,95.11
2022-08-01T01:26:59.501Z,95.14
2022-08-01T01:37:08.762Z,95.08
2022-08-01T01:47:16.122Z,95.03
2022-08-01T01:57:23.927Z,94.63
2022-08-01T02:07:30.773Z,94.27
2022-08-01T02:17:43.562Z,93.99
2022-08-01T02:27:54.129Z,93.81
2022-08-01T02:38:02.227Z,93.92
2022-08-01T02:48:11.939Z,94.07
2022-08-01T02:58:20.746Z,93.99
2022-08-01T03:08:28.013Z,94.03
2022-08-01T03:18:34.640Z,94.11
2022-08-01T03:28:41.132Z,94.26
2022-08-01T03:38:48.742Z,94.22
2022-08-01T03:48:57.765Z,94.03
2022-08-01T03:59:06.107Z,93.57
2022-08-01T04:09:13.901Z,93.27
2022-08-01T04:19:20.134Z,92.80
2022-08-01T04:29:27.462Z,91.72
2022-08-01T04:39:50.832Z,89.48
2022-08-01T04:49:58.044Z,86.61
2022-08-01T05:00:05.364Z,83.51
2022-08-01T05:10:12.174Z,80.10
2022-08-01T05:20:18.149Z,73.01
2022-08-01T05:30:24.105Z,63.54
2022-08-01T05:40:29.959Z,53.50
2022-08-01T05:50:36.380Z,45.93
2022-08-01T06:00:42.353Z,39.75
2022-08-01T06:10:48.212Z,34.23
2022-08-01T06:20:53.949Z,30.44
2022-08-01T06:31:00.830Z,27.12
2022-08-01T06:41:06.692Z,24.55
2022-08-01T06:51:14.551Z,22.57
2022-08-01T07:01:20.523Z,20.86
2022-08-01T07:11:27.329Z,19.35
2022-08-01T07:21:40.420Z,18.45
2022-08-01T07:31:47.003Z,18.06
2022-08-01T07:42:13.371Z,17.51
2022-08-01T07:52:18.967Z,16.86
2022-08-01T08:02:25.227Z,17.47
2022-08-01T08:12:30.965Z,16.67
2022-08-01T08:22:37.677Z,17.86
2022-08-01T08:32:44.078Z,21.53
2022-08-01T08:42:49.937Z,24.47
2022-08-01T08:52:57.442Z,27.49
2022-08-01T09:03:03.962Z,28.73
2022-08-01T09:13:13.338Z,29.61
2022-08-01T09:23:36.085Z,30.16
2022-08-01T09:33:56.831Z,31.03
2022-08-01T09:44:04.903Z,31.06
2022-08-01T09:54:10.667Z,31.10
2022-08-01T10:04:20.167Z,30.67
2022-08-01T10:14:26.988Z,30.33
2022-08-01T10:24:34.146Z,31.27
2022-08-01T10:34:44.951Z,32.30
2022-08-01T10:44:52.032Z,32.37
2022-08-01T10:55:05.315Z,33.02
2022-08-01T11:05:23.824Z,34.84
2022-08-01T11:15:31.230Z,35.42
2022-08-01T11:26:10.911Z,35.94
2022-08-01T11:36:55.875Z,36.08
2022-08-01T11:47:10.931Z,35.83
2022-08-01T11:57:23.542Z,36.67
2022-08-01T12:07:33.250Z,37.31
2022-08-01T12:17:57.315Z,37.05
2022-08-01T12:28:07.163Z,37.57
2022-08-01T12:38:26.054Z,37.68
2022-08-01T12:48:34.420Z,38.73
2022-08-01T12:58:40.413Z,39.24
2022-08-01T13:08:47.141Z,38.22
2022-08-01T13:18:54.902Z,36.75
2022-08-01T13:29:09.801Z,35.38
2022-08-01T13:39:33.271Z,34.98
2022-08-01T13:49:41.015Z,35.86
2022-08-01T13:59:47.066Z,36.65
2022-08-01T14:10:04.770Z,36.58
2022-08-01T14:20:20.754Z,36.30
2022-08-01T14:30:26.426Z,36.70
2022-08-01T14:40:32.731Z,37.60
2022-08-01T14:50:39.217Z,37.81
2022-08-01T15:00:45.309Z,37.62
2022-08-01T15:10:51.312Z,38.00
2022-08-01T15:20:58.458Z,38.89
2022-08-01T15:31:04.323Z,39.14
2022-08-01T15:41:10.354Z,40.09
2022-08-01T15:51:16.439Z,39.93
2022-08-01T16:01:22.716Z,39.71
2022-08-01T16:11:28.753Z,39.97
2022-08-01T16:21:34.846Z,40.29
2022-08-01T16:31:43.819Z,41.35
2022-08-01T16:42:08.126Z,42.71
2022-08-01T16:52:14.270Z,43.49
2022-08-01T17:02:20.236Z,45.50
2022-08-01T17:12:26.559Z,46.92
2022-08-01T17:22:32.403Z,47.57
2022-08-01T17:32:39.772Z,49.03
2022-08-01T17:42:45.853Z,49.89
2022-08-01T17:52:51.888Z,51.18
2022-08-01T18:02:57.948Z,52.19
2022-08-01T18:13:04.318Z,53.19
2022-08-01T18:23:11.256Z,54.20
2022-08-01T18:33:17.106Z,55.15
2022-08-01T18:43:23.267Z,55.99
2022-08-01T18:53:29.181Z,57.37
2022-08-01T19:03:36.779Z,58.40
2022-08-01T19:13:45.406Z,59.09
2022-08-01T19:24:09.125Z,60.42
2022-08-01T19:34:16.908Z,61.38
2022-08-01T19:44:25.943Z,62.22
2022-08-01T19:54:35.759Z,63.11
2022-08-01T20:04:43.869Z,63.77
2022-08-01T20:14:53.905Z,64.73
2022-08-01T20:25:01.862Z,65.34
2022-08-01T20:35:09.596Z,66.01
2022-08-01T20:45:18.763Z,66.61
2022-08-01T20:55:27.415Z,67.17
2022-08-01T21:05:37.698Z,68.04
2022-08-01T21:16:11.801Z,68.82
2022-08-01T21:26:24.098Z,69.54
2022-08-01T21:36:31.223Z,70.23
2022-08-01T21:46:37.287Z,70.98
2022-08-01T21:56:55.912Z,71.46
2022-08-01T22:07:03.881Z,71.85
2022-08-01T22:17:11.384Z,72.39
2022-08-01T22:28:06.335Z,72.90
2022-08-01T22:37:56.078Z,73.33
2022-08-01T22:48:11.709Z,73.97
2022-08-01T22:58:20.335Z,74.15
2022-08-01T23:08:26.650Z,74.73
2022-08-01T23:18:32.689Z,75.32
2022-08-01T23:28:40.450Z,75.65
2022-08-01T23:38:46.769Z,75.82
2022-08-01T23:48:52.694Z,76.50
2022-08-01T23:58:58.489Z,77.19
